createdAt,value
2023-04-26T00:01:46.747Z,80.17
2023-04-26T00:04:40.186Z,80.14
2023-04-26T00:08:00.030Z,80.18
2023-04-26T00:10:48.549Z,80.29
2023-04-26T00:13:19.624Z,80.29
2023-04-26T00:15:51.366Z,80.01
2023-04-26T00:32:23.204Z,80.32
2023-04-26T00:37:53.979Z,80.36
2023-04-26T00:40:20.625Z,80.35
2023-04-26T00:42:47.070Z,80.33
2023-04-26T00:45:13.490Z,80.27
2023-04-26T00:47:40.822Z,80.39
2023-04-26T00:50:08.140Z,80.46
2023-04-26T00:52:35.247Z,80.52
2023-04-26T00:55:02.984Z,80.77
2023-04-26T00:57:29.501Z,80.65
2023-04-26T00:59:56.337Z,80.74
2023-04-26T01:02:22.912Z,80.78
2023-04-26T01:04:49.423Z,80.62
2023-04-26T01:07:16.106Z,80.93
2023-04-26T01:09:44.078Z,80.68
2023-04-26T01:12:11.458Z,80.49
2023-04-26T01:14:39.256Z,80.72
2023-04-26T01:17:06.283Z,80.71
2023-04-26T01:19:32.861Z,80.83
2023-04-26T01:21:59.376Z,80.88
2023-04-26T01:24:25.874Z,80.72
2023-04-26T01:26:52.355Z,81.17
2023-04-26T01:29:21.628Z,81.14
2023-04-26T01:31:48.643Z,81.16
2023-04-26T01:34:15.648Z,81.01
2023-04-26T01:36:42.577Z,81.34
2023-04-26T01:39:09.414Z,81.41
2023-04-26T01:41:35.902Z,81.02
2023-04-26T01:44:02.358Z,81.29
2023-04-26T01:46:28.831Z,81.33
2023-04-26T01:48:55.418Z,81.21
2023-04-26T01:51:21.814Z,81.25
2023-04-26T01:53:48.258Z,81.41
2023-04-26T01:56:14.660Z,81.35
2023-04-26T01:58:41.096Z,81.47
2023-04-26T02:01:09.149Z,81.36
2023-04-26T02:03:36.289Z,81.37
2023-04-26T02:06:03.698Z,81.40
2023-04-26T02:08:30.190Z,81.33
2023-04-26T02:10:56.669Z,81.47
2023-04-26T02:13:23.153Z,81.59
2023-04-26T02:15:50.358Z,81.64
2023-04-26T02:18:17.652Z,81.50
2023-04-26T02:20:45.709Z,81.58
2023-04-26T02:23:12.591Z,81.92
2023-04-26T02:25:39.589Z,81.68
2023-04-26T02:28:06.515Z,81.61
2023-04-26T02:30:33.259Z,81.53
2023-04-26T02:32:59.933Z,81.62
2023-04-26T02:35:26.770Z,81.78
2023-04-26T02:37:53.228Z,81.78
2023-04-26T02:40:20.106Z,82.03
2023-04-26T02:42:46.672Z,81.80
2023-04-26T02:45:13.209Z,82.10
2023-04-26T02:47:40.129Z,81.97
2023-04-26T02:50:08.001Z,81.94
2023-04-26T02:52:35.467Z,82.19
2023-04-26T02:55:04.269Z,81.95
2023-04-26T02:57:31.640Z,82.15
2023-04-26T02:59:58.642Z,82.01
2023-04-26T03:02:25.365Z,82.08
2023-04-26T03:04:51.938Z,82.09
2023-04-26T03:07:18.421Z,82.25
2023-04-26T03:09:44.889Z,81.98
2023-04-26T03:12:12.441Z,82.22
2023-04-26T03:14:38.926Z,82.06
2023-04-26T03:17:06.235Z,82.08
2023-04-26T03:19:32.770Z,82.11
2023-04-26T03:21:59.185Z,82.20
2023-04-26T03:24:25.602Z,82.14
2023-04-26T03:26:52.428Z,82.27
2023-04-26T03:29:18.790Z,82.10
2023-04-26T03:31:45.382Z,82.43
2023-04-26T03:34:11.779Z,82.32
2023-04-26T03:36:38.518Z,82.28
2023-04-26T03:39:06.192Z,82.53
2023-04-26T03:41:33.466Z,82.37
2023-04-26T03:43:59.924Z,82.51
2023-04-26T03:46:26.446Z,82.44
2023-04-26T03:48:53.100Z,82.55
2023-04-26T03:51:19.837Z,82.56
2023-04-26T03:53:48.605Z,82.71
2023-04-26T03:56:15.114Z,82.62
2023-04-26T03:58:42.126Z,82.66
2023-04-26T04:01:08.742Z,82.75
2023-04-26T04:03:36.231Z,82.61
2023-04-26T04:06:04.039Z,82.73
2023-04-26T04:08:30.535Z,82.79
2023-04-26T04:10:56.943Z,82.87
2023-04-26T04:13:23.608Z,82.82
2023-04-26T04:15:50.072Z,82.85
2023-04-26T04:18:16.924Z,82.78
2023-04-26T04:20:43.379Z,83.16
2023-04-26T04:23:10.048Z,82.91
2023-04-26T04:25:36.695Z,82.81
2023-04-26T04:28:03.424Z,83.11
2023-04-26T04:30:30.809Z,82.84
2023-04-26T04:32:59.329Z,83.21
2023-04-26T04:35:30.191Z,82.99
2023-04-26T04:37:57.163Z,83.14
2023-04-26T04:40:25.044Z,83.27
2023-04-26T04:42:52.066Z,82.91
2023-04-26T04:45:18.688Z,83.05
2023-04-26T04:47:45.378Z,82.86
2023-04-26T04:50:12.244Z,83.15
2023-04-26T04:52:38.687Z,83.02
2023-04-26T04:55:05.529Z,83.06
2023-04-26T04:57:32.495Z,83.11
2023-04-26T04:59:59.305Z,82.94
2023-04-26T05:02:26.105Z,82.98
2023-04-26T05:04:53.363Z,82.69
2023-04-26T05:07:19.882Z,82.65
2023-04-26T05:09:46.387Z,82.78
2023-04-26T05:12:12.807Z,82.48
2023-04-26T05:14:40.934Z,82.17
2023-04-26T05:17:07.707Z,81.97
2023-04-26T05:19:34.106Z,82.06
2023-04-26T05:22:00.540Z,82.19
2023-04-26T05:24:30.386Z,82.33
2023-04-26T05:26:58.917Z,82.28
2023-04-26T05:29:30.130Z,82.03
2023-04-26T05:31:57.192Z,81.95
2023-04-26T05:34:24.590Z,81.93
2023-04-26T05:36:51.561Z,81.77
2023-04-26T05:39:19.194Z,81.92
2023-04-26T05:41:45.738Z,81.69
2023-04-26T05:44:13.541Z,82.06
2023-04-26T05:46:40.192Z,81.98
2023-04-26T05:49:07.068Z,81.81
2023-04-26T05:51:33.683Z,81.80
2023-04-26T05:54:00.228Z,81.48
2023-04-26T05:56:26.644Z,81.62
2023-04-26T05:58:53.461Z,81.57
2023-04-26T06:01:19.912Z,81.59
2023-04-26T06:03:46.840Z,81.34
2023-04-26T06:06:13.613Z,81.17
2023-04-26T06:08:40.027Z,79.65
2023-04-26T06:11:06.421Z,79.33
2023-04-26T06:13:32.833Z,79.61
2023-04-26T06:15:59.841Z,79.27
2023-04-26T06:18:26.229Z,79.55
2023-04-26T06:20:52.695Z,79.55
2023-04-26T06:23:20.324Z,79.77
2023-04-26T06:25:47.147Z,79.54
2023-04-26T06:28:13.641Z,79.40
2023-04-26T06:30:40.173Z,79.62
2023-04-26T06:33:06.635Z,79.36
2023-04-26T06:35:33.093Z,79.36
2023-04-26T06:37:59.498Z,79.26
2023-04-26T06:40:25.929Z,79.10
2023-04-26T06:42:52.309Z,78.86
2023-04-26T06:45:18.903Z,78.55
2023-04-26T06:47:45.769Z,78.35
2023-04-26T06:50:12.847Z,78.21
2023-04-26T06:52:39.255Z,78.05
2023-04-26T06:55:08.218Z,77.48
2023-04-26T06:57:34.573Z,77.57
2023-04-26T07:00:01.949Z,77.26
2023-04-26T07:02:28.481Z,77.37
2023-04-26T07:04:55.791Z,76.96
2023-04-26T07:07:22.443Z,76.64
2023-04-26T07:09:49.684Z,75.15
2023-04-26T07:12:16.185Z,74.10
2023-04-26T07:14:43.329Z,73.30
2023-04-26T07:17:10.572Z,72.18
2023-04-26T07:19:37.272Z,71.46
2023-04-26T07:22:04.680Z,70.88
2023-04-26T07:24:31.199Z,70.24
2023-04-26T07:26:57.978Z,70.20
2023-04-26T07:29:24.501Z,70.89
2023-04-26T07:31:50.864Z,71.68
2023-04-26T07:34:17.317Z,71.70
2023-04-26T07:36:43.722Z,71.94
2023-04-26T07:39:10.838Z,71.85
2023-04-26T07:41:37.410Z,71.74
2023-04-26T07:44:04.519Z,71.92
2023-04-26T07:46:33.346Z,71.55
2023-04-26T07:48:59.733Z,70.98
2023-04-26T07:51:27.337Z,70.94
2023-04-26T07:53:55.710Z,70.73
2023-04-26T07:56:24.111Z,70.49
2023-04-26T07:58:50.682Z,70.20
2023-04-26T08:01:17.171Z,70.08
2023-04-26T08:03:43.812Z,69.69
2023-04-26T08:06:10.698Z,69.51
2023-04-26T08:08:45.589Z,68.98
2023-04-26T08:11:12.090Z,68.49
2023-04-26T08:13:38.598Z,68.21
2023-04-26T08:16:06.100Z,67.66
2023-04-26T08:18:32.572Z,67.53
2023-04-26T08:20:59.153Z,66.91
2023-04-26T08:23:25.575Z,66.99
2023-04-26T08:25:52.052Z,67.00
2023-04-26T08:28:18.526Z,66.76
2023-04-26T08:30:45.270Z,66.19
2023-04-26T08:33:11.800Z,65.87
2023-04-26T08:35:38.209Z,66.28
2023-04-26T08:38:04.692Z,65.99
2023-04-26T08:40:31.633Z,65.15
2023-04-26T08:42:58.117Z,64.50
2023-04-26T08:45:24.763Z,64.53
2023-04-26T08:47:53.692Z,64.65
2023-04-26T08:50:22.449Z,64.58
2023-04-26T08:52:51.365Z,64.50
2023-04-26T08:55:20.038Z,64.16
2023-04-26T08:57:48.089Z,63.82
2023-04-26T09:00:15.961Z,63.56
2023-04-26T09:02:46.603Z,63.23
2023-04-26T09:05:13.730Z,63.22
2023-04-26T09:07:43.309Z,62.53
2023-04-26T09:10:11.947Z,62.49
2023-04-26T09:12:39.008Z,62.36
2023-04-26T09:15:09.061Z,62.52
2023-04-26T09:17:38.084Z,62.73
2023-04-26T09:20:24.024Z,62.77
2023-04-26T09:22:52.244Z,62.56
2023-04-26T09:25:27.190Z,62.52
2023-04-26T09:27:54.071Z,62.35
2023-04-26T09:30:22.200Z,62.25
2023-04-26T09:32:52.140Z,62.09
2023-04-26T09:35:22.961Z,61.71
2023-04-26T09:38:07.417Z,60.69
2023-04-26T09:40:49.000Z,60.21
2023-04-26T09:43:19.321Z,60.23
2023-04-26T09:45:49.395Z,59.74
2023-04-26T09:48:18.035Z,59.14
2023-04-26T09:50:46.361Z,58.74
2023-04-26T09:53:27.913Z,58.49
2023-04-26T09:55:55.493Z,58.57
2023-04-26T09:58:23.330Z,58.88
2023-04-26T10:00:54.475Z,59.56
2023-04-26T10:03:24.451Z,59.38
2023-04-26T10:05:51.798Z,59.28
2023-04-26T10:08:18.855Z,59.28
2023-04-26T10:10:45.984Z,58.87
2023-04-26T10:13:14.317Z,58.54
2023-04-26T10:15:41.683Z,58.53
2023-04-26T10:18:08.752Z,58.49
2023-04-26T10:20:41.489Z,58.22
2023-04-26T10:23:17.296Z,58.09
2023-04-26T10:25:43.866Z,57.94
2023-04-26T10:28:10.280Z,57.67
2023-04-26T10:30:55.431Z,57.63
2023-04-26T10:33:23.777Z,56.80
2023-04-26T10:36:01.916Z,55.94
2023-04-26T10:38:28.686Z,55.72
2023-04-26T10:40:56.493Z,54.71
2023-04-26T10:43:29.718Z,54.28
2023-04-26T10:45:56.953Z,53.90
2023-04-26T10:48:30.929Z,53.23
2023-04-26T10:51:00.299Z,53.25
2023-04-26T10:53:53.813Z,53.32
2023-04-26T10:56:23.512Z,52.87
2023-04-26T10:59:22.461Z,53.63
2023-04-26T11:01:54.670Z,54.14
2023-04-26T11:04:21.393Z,54.49
2023-04-26T11:06:59.895Z,54.61
2023-04-26T11:09:40.903Z,54.74
2023-04-26T11:12:12.568Z,54.10
2023-04-26T11:14:43.358Z,53.73
2023-04-26T11:17:10.432Z,53.48
2023-04-26T11:19:36.940Z,53.12
2023-04-26T11:22:07.222Z,53.40
2023-04-26T11:24:39.072Z,53.59
2023-04-26T11:27:10.207Z,53.48
2023-04-26T11:29:38.900Z,53.54
2023-04-26T11:32:05.713Z,53.11
2023-04-26T11:34:36.731Z,51.99
2023-04-26T11:37:04.673Z,51.27
2023-04-26T11:39:38.162Z,50.95
2023-04-26T11:42:08.757Z,50.48
2023-04-26T11:44:35.840Z,51.05
2023-04-26T11:47:05.740Z,50.97
2023-04-26T11:49:33.385Z,50.94
2023-04-26T11:52:00.052Z,50.85
2023-04-26T11:54:30.741Z,50.74
2023-04-26T11:56:58.695Z,49.98
2023-04-26T11:59:26.705Z,49.90
2023-04-26T12:01:53.686Z,49.59
2023-04-26T12:04:30.136Z,49.39
2023-04-26T12:07:01.439Z,48.76
2023-04-26T12:09:29.753Z,48.53
2023-04-26T12:12:00.909Z,48.26
2023-04-26T12:14:34.593Z,49.00
2023-04-26T12:17:03.221Z,49.20
2023-04-26T12:19:34.339Z,49.32
2023-04-26T12:22:00.973Z,49.14
2023-04-26T12:24:30.391Z,49.11
2023-04-26T12:26:56.919Z,48.62
2023-04-26T12:29:23.325Z,48.17
2023-04-26T12:31:50.895Z,48.04
2023-04-26T12:34:17.414Z,48.10
2023-04-26T12:36:44.503Z,47.74
2023-04-26T12:39:14.456Z,47.13
2023-04-26T12:41:45.476Z,47.16
2023-04-26T12:44:14.469Z,47.87
2023-04-26T12:46:41.177Z,48.19
2023-04-26T12:49:07.817Z,48.30
2023-04-26T12:51:34.424Z,48.38
2023-04-26T12:54:00.918Z,47.74
2023-04-26T12:56:29.519Z,47.22
2023-04-26T12:58:56.157Z,47.30
2023-04-26T13:01:24.130Z,46.85
2023-04-26T13:03:50.896Z,45.62
2023-04-26T13:06:17.918Z,45.53
2023-04-26T13:08:44.305Z,45.72
2023-04-26T13:11:11.010Z,45.86
2023-04-26T13:13:43.679Z,46.15
2023-04-26T13:16:13.461Z,46.71
2023-04-26T13:18:40.467Z,46.75
2023-04-26T13:21:07.112Z,46.77
2023-04-26T13:23:33.512Z,46.36
2023-04-26T13:26:00.009Z,45.94
2023-04-26T13:28:26.501Z,45.34
2023-04-26T13:30:52.972Z,44.83
2023-04-26T13:33:21.584Z,45.15
2023-04-26T13:35:48.540Z,46.41
2023-04-26T13:38:16.053Z,46.55
2023-04-26T13:40:43.248Z,46.00
2023-04-26T13:43:09.780Z,45.00
2023-04-26T13:45:37.513Z,44.48
2023-04-26T13:48:04.233Z,43.75
2023-04-26T13:50:30.842Z,43.63
2023-04-26T13:52:58.459Z,43.86
2023-04-26T13:55:25.712Z,43.85
2023-04-26T13:57:53.608Z,43.95
2023-04-26T14:00:20.482Z,44.39
2023-04-26T14:02:47.365Z,44.93
2023-04-26T14:05:14.084Z,45.44
2023-04-26T14:07:41.484Z,45.83
2023-04-26T14:10:08.842Z,45.82
2023-04-26T14:12:35.358Z,45.81
2023-04-26T14:15:05.917Z,45.57
2023-04-26T14:17:33.227Z,45.89
2023-04-26T14:19:59.724Z,45.68
2023-04-26T14:22:28.173Z,45.41
2023-04-26T14:24:54.629Z,45.03
2023-04-26T14:27:21.037Z,45.14
2023-04-26T14:29:47.505Z,45.07
2023-04-26T14:32:15.555Z,44.49
2023-04-26T14:34:42.829Z,44.17
2023-04-26T14:37:09.248Z,43.48
2023-04-26T14:39:37.685Z,42.99
2023-04-26T14:42:04.356Z,42.74
2023-04-26T14:44:30.892Z,43.06
2023-04-26T14:46:57.386Z,42.74
2023-04-26T14:49:23.832Z,42.47
2023-04-26T14:51:52.549Z,42.19
2023-04-26T14:54:19.880Z,42.19
2023-04-26T14:56:46.326Z,42.28
2023-04-26T14:59:12.874Z,42.37
2023-04-26T15:01:39.625Z,42.75
2023-04-26T15:04:06.583Z,42.25
2023-04-26T15:06:34.267Z,42.45
2023-04-26T15:09:01.406Z,43.34
2023-04-26T15:11:27.853Z,43.13
2023-04-26T15:13:54.270Z,43.43
2023-04-26T15:16:20.818Z,43.40
2023-04-26T15:18:48.522Z,43.86
2023-04-26T15:21:18.912Z,43.91
2023-04-26T15:23:45.552Z,43.87
2023-04-26T15:26:13.533Z,43.48
2023-04-26T15:28:40.396Z,43.25
2023-04-26T15:31:09.366Z,43.14
2023-04-26T15:33:37.502Z,42.65
2023-04-26T15:36:04.223Z,42.69
2023-04-26T15:38:30.753Z,42.61
2023-04-26T15:40:57.137Z,43.67
2023-04-26T15:43:23.582Z,43.69
2023-04-26T15:45:50.128Z,43.69
2023-04-26T15:48:16.835Z,43.67
2023-04-26T15:50:43.363Z,44.00
2023-04-26T15:53:09.921Z,43.80
2023-04-26T15:55:36.430Z,44.04
2023-04-26T15:58:03.133Z,44.13
2023-04-26T16:00:31.123Z,44.16
2023-04-26T16:02:57.808Z,44.27
2023-04-26T16:05:24.452Z,44.30
2023-04-26T16:07:51.242Z,44.75
2023-04-26T16:10:17.645Z,44.94
2023-04-26T16:12:44.769Z,45.17
2023-04-26T16:15:11.981Z,45.44
2023-04-26T16:17:39.232Z,45.75
2023-04-26T16:20:07.209Z,46.23
2023-04-26T16:22:34.666Z,46.50
2023-04-26T16:25:02.821Z,46.36
2023-04-26T16:27:29.558Z,46.20
2023-04-26T16:29:57.012Z,46.46
2023-04-26T16:32:23.818Z,46.70
2023-04-26T16:34:51.534Z,46.52
2023-04-26T16:37:18.027Z,46.68
2023-04-26T16:39:44.485Z,46.76
2023-04-26T16:42:12.573Z,46.81
2023-04-26T16:44:40.313Z,46.80
2023-04-26T16:47:06.792Z,46.97
2023-04-26T16:49:33.334Z,47.00
2023-04-26T16:51:59.758Z,47.06
2023-04-26T16:54:26.589Z,47.19
2023-04-26T16:56:53.789Z,47.17
2023-04-26T16:59:20.551Z,47.21
2023-04-26T17:01:50.734Z,47.36
2023-04-26T17:04:17.521Z,47.51
2023-04-26T17:06:45.075Z,47.59
2023-04-26T17:09:13.045Z,47.64
2023-04-26T17:11:43.421Z,47.61
2023-04-26T17:14:10.363Z,47.40
2023-04-26T17:16:37.062Z,47.35
2023-04-26T17:19:04.107Z,47.35
2023-04-26T17:21:30.728Z,47.66
2023-04-26T17:23:57.319Z,47.85
2023-04-26T17:26:23.848Z,47.78
2023-04-26T17:28:51.297Z,48.16
2023-04-26T17:31:17.828Z,48.29
2023-04-26T17:33:44.351Z,48.40
2023-04-26T17:36:10.847Z,48.53
2023-04-26T17:38:37.266Z,48.46
2023-04-26T17:41:03.666Z,48.26
2023-04-26T17:43:30.109Z,48.42
2023-04-26T17:45:56.885Z,48.24
2023-04-26T17:48:23.296Z,48.05
2023-04-26T17:50:50.986Z,46.58
2023-04-26T17:53:17.580Z,46.22
2023-04-26T17:55:44.896Z,46.82
2023-04-26T17:58:11.505Z,46.94
2023-04-26T18:00:39.605Z,47.75
2023-04-26T18:03:06.772Z,48.16
2023-04-26T18:05:33.408Z,48.45
2023-04-26T18:07:59.822Z,48.87
2023-04-26T18:10:26.433Z,49.06
2023-04-26T18:12:52.840Z,49.23
2023-04-26T18:15:19.366Z,49.49
2023-04-26T18:17:45.993Z,50.00
2023-04-26T18:20:14.229Z,50.11
2023-04-26T18:22:41.571Z,49.99
2023-04-26T18:25:08.545Z,49.85
2023-04-26T18:27:35.098Z,50.14
2023-04-26T18:30:02.090Z,50.23
2023-04-26T18:32:28.596Z,50.80
2023-04-26T18:34:55.014Z,51.22
2023-04-26T18:37:21.434Z,50.99
2023-04-26T18:39:48.770Z,51.22
2023-04-26T18:42:15.364Z,51.64
2023-04-26T18:44:41.976Z,51.31
2023-04-26T18:47:08.405Z,51.95
2023-04-26T18:49:35.065Z,51.60
2023-04-26T18:52:01.689Z,51.63
2023-04-26T18:54:28.234Z,51.47
2023-04-26T18:56:54.670Z,51.56
2023-04-26T18:59:21.123Z,51.34
2023-04-26T19:01:49.087Z,51.58
2023-04-26T19:04:15.901Z,52.27
2023-04-26T19:06:42.430Z,51.72
2023-04-26T19:09:11.564Z,51.55
2023-04-26T19:11:38.119Z,51.83
2023-04-26T19:14:04.536Z,51.33
2023-04-26T19:16:31.158Z,51.85
2023-04-26T19:18:58.646Z,52.31
2023-04-26T19:21:25.099Z,52.13
2023-04-26T19:23:51.834Z,52.31
2023-04-26T19:26:18.470Z,52.09
2023-04-26T19:28:45.262Z,52.30
2023-04-26T19:31:11.823Z,52.13
2023-04-26T19:33:38.516Z,52.05
2023-04-26T19:36:05.230Z,52.36
2023-04-26T19:38:31.913Z,52.52
2023-04-26T19:40:58.586Z,52.48
2023-04-26T19:43:25.006Z,52.65
2023-04-26T19:45:51.645Z,52.82
2023-04-26T19:48:18.127Z,52.65
2023-04-26T19:50:47.636Z,52.50
2023-04-26T19:53:14.895Z,52.94
2023-04-26T19:55:42.369Z,52.99
2023-04-26T19:58:12.923Z,53.34
2023-04-26T20:00:41.663Z,53.05
2023-04-26T20:03:08.466Z,53.41
2023-04-26T20:05:35.056Z,53.13
2023-04-26T20:08:01.972Z,53.24
2023-04-26T20:10:33.440Z,53.27
2023-04-26T20:13:00.945Z,53.49
2023-04-26T20:15:27.985Z,53.41
2023-04-26T20:17:54.585Z,53.82
2023-04-26T20:20:21.337Z,53.78
2023-04-26T20:22:47.859Z,54.77
2023-04-26T20:25:14.398Z,54.45
2023-04-26T20:27:40.839Z,54.36
2023-04-26T20:30:07.954Z,54.90
2023-04-26T20:32:34.709Z,54.52
2023-04-26T20:35:01.893Z,54.92
2023-04-26T20:37:28.334Z,55.04
2023-04-26T20:39:54.785Z,54.84
2023-04-26T20:42:22.138Z,54.62
2023-04-26T20:44:48.585Z,54.99
2023-04-26T20:47:16.743Z,54.76
2023-04-26T20:49:43.095Z,55.24
2023-04-26T20:52:09.793Z,55.92
2023-04-26T20:54:36.460Z,56.29
2023-04-26T20:57:04.138Z,55.56
2023-04-26T20:59:30.885Z,55.19
2023-04-26T21:01:57.539Z,56.26
2023-04-26T21:04:24.429Z,55.61
2023-04-26T21:06:51.183Z,56.29
2023-04-26T21:09:17.720Z,56.56
2023-04-26T21:11:44.441Z,56.35
2023-04-26T21:14:10.944Z,56.83
2023-04-26T21:16:37.336Z,57.27
2023-04-26T21:19:04.992Z,56.08
2023-04-26T21:21:32.552Z,57.29
2023-04-26T21:23:59.251Z,57.60
2023-04-26T21:26:25.739Z,57.25
2023-04-26T21:28:52.130Z,56.85
2023-04-26T21:31:19.037Z,57.56
2023-04-26T21:33:45.604Z,57.37
2023-04-26T21:36:12.071Z,57.20
2023-04-26T21:38:38.535Z,57.99
2023-04-26T21:41:05.113Z,57.84
2023-04-26T21:43:31.637Z,57.76
2023-04-26T21:45:58.506Z,58.48
2023-04-26T21:48:26.124Z,58.11
2023-04-26T21:50:52.702Z,58.07
2023-04-26T21:53:19.134Z,58.97
2023-04-26T21:55:53.323Z,59.25
2023-04-26T21:58:20.537Z,58.99
2023-04-26T22:00:47.108Z,59.28
2023-04-26T22:03:15.200Z,58.95
2023-04-26T22:05:42.040Z,59.11
2023-04-26T22:08:08.579Z,59.51
2023-04-26T22:10:35.520Z,59.48
2023-04-26T22:13:02.185Z,59.70
2023-04-26T22:15:28.902Z,60.51
2023-04-26T22:17:55.518Z,60.20
2023-04-26T22:20:22.449Z,60.50
2023-04-26T22:22:49.003Z,60.22
2023-04-26T22:25:15.499Z,60.74
2023-04-26T22:27:41.888Z,60.49
2023-04-26T22:30:20.838Z,60.62
2023-04-26T22:32:54.053Z,61.74
2023-04-26T22:35:21.624Z,61.14
2023-04-26T22:37:48.072Z,60.86
2023-04-26T22:40:15.232Z,61.94
2023-04-26T22:42:42.303Z,60.97
2023-04-26T22:45:12.180Z,61.24
2023-04-26T22:47:39.414Z,61.46
2023-04-26T22:50:07.371Z,61.72
2023-04-26T22:52:34.457Z,61.31
2023-04-26T22:55:01.149Z,62.09
2023-04-26T22:57:28.890Z,61.70
2023-04-26T22:59:55.389Z,62.32
2023-04-26T23:02:22.039Z,62.20
2023-04-26T23:04:48.608Z,61.65
2023-04-26T23:07:15.095Z,61.95
2023-04-26T23:09:41.614Z,62.20
2023-04-26T23:12:08.083Z,62.54
2023-04-26T23:14:35.061Z,62.25
2023-04-26T23:17:02.719Z,62.66
2023-04-26T23:19:29.329Z,62.33
2023-04-26T23:21:55.818Z,62.56
2023-04-26T23:24:22.240Z,62.91
2023-04-26T23:26:48.734Z,63.13
2023-04-26T23:29:15.397Z,62.93
2023-04-26T23:31:42.157Z,62.45
2023-04-26T23:34:08.692Z,62.80
2023-04-26T23:36:35.329Z,62.73
2023-04-26T23:39:01.769Z,62.93
2023-04-26T23:41:28.184Z,63.31
2023-04-26T23:43:54.528Z,63.24
2023-04-26T23:46:21.145Z,63.00
2023-04-26T23:48:47.579Z,63.38
2023-04-26T23:51:14.011Z,63.74
2023-04-26T23:53:40.592Z,63.00
2023-04-26T23:56:07.888Z,63.41
2023-04-26T23:58:34.324Z,63.40
